Time,TemperatureF,DewpointF,PressureIn,WindDirection,WindDirectionDegrees,WindSpeedMPH,WindSpeedGustMPH,Humidity,HourlyPrecipIn,Conditions,Clouds,dailyrainin,SoftwareType,DateUTC
2013-08-03 00:03:00,61.2,54.0,30.01,ENE,67,0.0,0.0,77,0.00,,,0.00,meteohub,2013-08-03 05:03:00,
2013-08-03 00:08:00,61.0,53.8,30.01,ENE,67,0.0,0.0,77,0.00,,,0.00,meteohub,2013-08-03 05:08:00,
2013-08-03 00:13:00,61.0,53.8,30.02,ENE,67,0.0,0.0,77,0.00,,,0.00,meteohub,2013-08-03 05:13:00,
2013-08-03 00:18:00,60.8,54.0,30.02,ENE,67,0.0,0.0,78,0.00,,,0.00,meteohub,2013-08-03 05:18:00,
2013-08-03 00:24:00,60.6,53.8,30.02,ENE,67,0.0,0.0,78,0.00,,,0.00,meteohub,2013-08-03 05:24:00,
2013-08-03 00:29:00,60.6,54.1,30.02,ENE,67,0.0,0.0,79,0.00,,,0.00,meteohub,2013-08-03 05:29:00,
2013-08-03 00:34:00,60.4,54.0,30.02,ENE,67,0.0,0.0,79,0.00,,,0.00,meteohub,2013-08-03 05:34:00,
2013-08-03 00:39:00,60.4,54.0,30.02,ENE,67,0.0,0.0,79,0.00,,,0.00,meteohub,2013-08-03 05:39:00,
2013-08-03 00:44:00,60.3,53.8,30.03,ENE,67,0.0,0.0,79,0.00,,,0.00,meteohub,2013-08-03 05:44:00,
2013-08-03 00:50:00,60.1,53.6,30.03,ENE,67,0.0,0.0,79,0.00,,,0.00,meteohub,2013-08-03 05:50:00,
2013-08-03 00:55:00,59.9,53.8,30.03,ENE,67,0.0,0.0,80,0.00,,,0.00,meteohub,2013-08-03 05:55:00,
2013-08-03 01:00:00,59.7,53.6,30.03,ENE,67,0.0,0.0,80,0.00,,,0.00,meteohub,2013-08-03 06:00:00,
2013-08-03 01:05:00,59.7,53.6,30.03,ENE,67,0.0,0.0,80,0.00,,,0.00,meteohub,2013-08-03 06:05:00,
2013-08-03 01:10:00,59.5,53.4,30.03,ENE,67,0.0,0.0,80,0.00,,,0.00,meteohub,2013-08-03 06:10:00,
2013-08-03 01:16:00,59.5,53.4,30.03,ENE,67,0.0,0.0,80,0.00,,,0.00,meteohub,2013-08-03 06:16:00,
2013-08-03 01:21:00,59.4,53.6,30.03,ENE,67,0.0,0.0,81,0.00,,,0.00,meteohub,2013-08-03 06:21:00,
2013-08-03 01:26:00,59.4,53.6,30.03,ENE,67,0.0,0.0,81,0.00,,,0.00,meteohub,2013-08-03 06:26:00,
2013-08-03 01:31:00,59.2,53.4,30.03,ENE,67,0.0,0.0,81,0.00,,,0.00,meteohub,2013-08-03 06:31:00,
2013-08-03 01:36:00,59.0,53.2,30.03,ENE,67,0.0,0.0,81,0.00,,,0.00,meteohub,2013-08-03 06:36:00,
2013-08-03 01:42:00,59.0,53.2,30.02,ENE,67,0.0,0.0,81,0.00,,,0.00,meteohub,2013-08-03 06:42:00,
2013-08-03 01:47:00,59.0,53.6,30.03,ENE,67,0.0,0.0,82,0.00,,,0.00,meteohub,2013-08-03 06:47:00,
2013-08-03 01:52:00,59.0,53.6,30.03,ENE,67,0.0,0.0,82,0.00,,,0.00,meteohub,2013-08-03 06:52:00,
2013-08-03 01:56:00,58.6,53.2,30.03,ENE,67,0.0,0.0,82,0.00,,,0.00,meteohub,2013-08-03 06:56:00,
2013-08-03 02:02:00,58.6,53.4,30.03,ENE,67,0.0,0.0,83,0.00,,,0.00,meteohub,2013-08-03 07:02:00,
2013-08-03 02:07:00,58.5,53.1,30.03,ENE,67,0.0,0.0,82,0.00,,,0.00,meteohub,2013-08-03 07:07:00,
2013-08-03 02:12:00,58.3,53.1,30.03,ENE,67,0.0,0.0,83,0.00,,,0.00,meteohub,2013-08-03 07:12:00,
2013-08-03 02:17:00,58.3,53.1,30.03,ENE,67,0.0,0.0,83,0.00,,,0.00,meteohub,2013-08-03 07:17:00,
2013-08-03 02:21:00,58.1,52.9,30.03,ENE,67,0.0,0.0,83,0.00,,,0.00,meteohub,2013-08-03 07:21:00,
2013-08-03 02:27:00,57.9,52.7,30.04,ENE,67,0.0,0.0,83,0.00,,,0.00,meteohub,2013-08-03 07:27:00,
2013-08-03 02:32:00,57.7,52.7,30.04,ENE,67,0.0,0.0,83,0.00,,,0.00,meteohub,2013-08-03 07:32:00,
2013-08-03 02:37:00,57.7,52.7,30.03,ENE,67,0.0,0.0,83,0.00,,,0.00,meteohub,2013-08-03 07:37:00,
2013-08-03 02:43:00,57.6,52.5,30.03,ENE,67,0.0,0.0,83,0.00,,,0.00,meteohub,2013-08-03 07:43:00,
2013-08-03 02:47:00,57.4,52.3,30.03,ENE,67,0.0,0.0,83,0.00,,,0.00,meteohub,2013-08-03 07:47:00,
2013-08-03 02:53:00,57.4,52.5,30.03,ENE,67,0.0,0.0,84,0.00,,,0.00,meteohub,2013-08-03 07:53:00,
2013-08-03 02:58:00,57.4,52.5,30.03,ENE,67,0.0,0.0,84,0.00,,,0.00,meteohub,2013-08-03 07:58:00,
2013-08-03 03:03:00,57.2,52.3,30.03,ENE,67,0.0,0.0,84,0.00,,,0.00,meteohub,2013-08-03 08:03:00,
2013-08-03 03:08:00,57.0,52.2,30.04,ENE,67,0.0,0.0,84,0.00,,,0.00,meteohub,2013-08-03 08:08:00,
2013-08-03 03:13:00,56.8,52.0,30.04,ENE,67,0.0,0.0,84,0.00,,,0.00,meteohub,2013-08-03 08:13:00,
2013-08-03 03:18:00,56.8,52.0,30.04,ENE,67,0.0,0.0,84,0.00,,,0.00,meteohub,2013-08-03 08:18:00,
2013-08-03 03:23:00,56.8,52.0,30.04,ENE,67,0.0,0.0,84,0.00,,,0.00,meteohub,2013-08-03 08:23:00,
2013-08-03 03:29:00,56.8,52.3,30.04,ENE,67,0.0,0.0,85,0.00,,,0.00,meteohub,2013-08-03 08:29:00,
2013-08-03 03:34:00,56.7,52.2,30.04,ENE,67,0.0,0.0,85,0.00,,,0.00,meteohub,2013-08-03 08:34:00,
2013-08-03 03:39:00,56.7,52.2,30.05,ENE,67,0.0,0.0,85,0.00,,,0.00,meteohub,2013-08-03 08:39:00,
2013-08-03 03:44:00,56.5,52.0,30.05,ENE,67,0.0,0.0,85,0.00,,,0.00,meteohub,2013-08-03 08:44:00,
2013-08-03 03:49:00,56.5,52.0,30.05,ENE,67,0.0,0.0,85,0.00,,,0.00,meteohub,2013-08-03 08:49:00,
2013-08-03 03:54:00,56.3,51.8,30.05,ENE,67,0.0,0.0,85,0.00,,,0.00,meteohub,2013-08-03 08:54:00,
2013-08-03 03:59:00,56.1,51.6,30.05,ENE,67,0.0,0.0,85,0.00,,,0.00,meteohub,2013-08-03 08:59:00,
2013-08-03 04:04:00,56.1,52.0,30.05,ENE,67,0.0,0.0,86,0.00,,,0.00,meteohub,2013-08-03 09:04:00,
2013-08-03 04:10:00,55.9,51.8,30.05,ENE,67,0.0,0.0,86,0.00,,,0.00,meteohub,2013-08-03 09:10:00,
2013-08-03 04:15:00,55.9,51.8,30.05,ENE,67,0.0,0.0,86,0.00,,,0.00,meteohub,2013-08-03 09:15:00,
2013-08-03 04:20:00,55.8,51.6,30.05,ENE,67,0.0,0.0,86,0.00,,,0.00,meteohub,2013-08-03 09:20:00,
2013-08-03 04:25:00,55.8,51.6,30.05,ENE,67,0.0,0.0,86,0.00,,,0.00,meteohub,2013-08-03 09:25:00,
2013-08-03 04:30:00,55.8,51.6,30.05,ENE,67,0.0,0.0,86,0.00,,,0.00,meteohub,2013-08-03 09:30:00,
2013-08-03 04:35:00,55.6,51.4,30.06,ENE,67,0.0,0.0,86,0.00,,,0.00,meteohub,2013-08-03 09:35:00,
2013-08-03 04:41:00,55.6,51.4,30.05,ENE,67,0.0,0.0,86,0.00,,,0.00,meteohub,2013-08-03 09:41:00,
2013-08-03 04:46:00,55.6,51.4,30.06,ENE,67,0.0,0.0,86,0.00,,,0.00,meteohub,2013-08-03 09:46:00,
2013-08-03 04:51:00,55.4,51.6,30.06,ENE,67,0.0,0.0,87,0.00,,,0.00,meteohub,2013-08-03 09:51:00,
2013-08-03 04:57:00,55.2,51.4,30.06,ENE,67,0.0,0.0,87,0.00,,,0.00,meteohub,2013-08-03 09:57:00,
2013-08-03 05:02:00,55.0,50.9,30.06,ENE,67,0.0,0.0,86,0.00,,,0.00,meteohub,2013-08-03 10:02:00,
2013-08-03 05:07:00,55.0,51.3,30.06,ENE,67,0.0,0.0,87,0.00,,,0.00,meteohub,2013-08-03 10:07:00,
2013-08-03 05:12:00,54.9,51.1,30.06,ENE,67,0.0,0.0,87,0.00,,,0.00,meteohub,2013-08-03 10:12:00,
2013-08-03 05:17:00,54.9,51.1,30.06,ENE,67,0.0,0.0,87,0.00,,,0.00,meteohub,2013-08-03 10:17:00,
2013-08-03 05:22:00,54.9,51.1,30.07,ENE,67,0.0,0.0,87,0.00,,,0.00,meteohub,2013-08-03 10:22:00,
2013-08-03 05:27:00,54.7,50.9,30.06,ENE,67,0.0,0.0,87,0.00,,,0.00,meteohub,2013-08-03 10:27:00,
2013-08-03 05:33:00,54.7,50.9,30.06,ENE,67,0.0,0.0,87,0.00,,,0.00,meteohub,2013-08-03 10:33:00,
2013-08-03 05:38:00,54.7,50.9,30.06,ENE,67,0.0,0.0,87,0.00,,,0.00,meteohub,2013-08-03 10:38:00,
2013-08-03 05:43:00,54.7,50.9,30.06,ENE,67,0.0,0.0,87,0.00,,,0.00,meteohub,2013-08-03 10:43:00,
2013-08-03 05:48:00,54.5,50.7,30.06,ENE,67,0.0,0.0,87,0.00,,,0.00,meteohub,2013-08-03 10:48:00,
2013-08-03 05:53:00,54.3,50.9,30.06,ENE,67,0.0,0.0,88,0.00,,,0.00,meteohub,2013-08-03 10:53:00,
2013-08-03 05:58:00,54.3,50.9,30.07,ENE,67,0.0,0.0,88,0.00,,,0.00,meteohub,2013-08-03 10:58:00,
2013-08-03 06:04:00,54.3,50.9,30.07,ENE,67,0.0,0.0,88,0.00,,,0.00,meteohub,2013-08-03 11:04:00,
2013-08-03 06:09:00,54.3,50.9,30.07,ENE,67,0.0,0.0,88,0.00,,,0.00,meteohub,2013-08-03 11:09:00,
2013-08-03 06:14:00,54.3,50.9,30.07,ENE,67,0.0,0.0,88,0.00,,,0.00,meteohub,2013-08-03 11:14:00,
2013-08-03 06:19:00,54.3,50.9,30.07,ENE,67,0.0,0.0,88,0.00,,,0.00,meteohub,2013-08-03 11:19:00,
2013-08-03 06:24:00,54.1,50.7,30.07,ENE,67,0.0,0.0,88,0.00,,,0.00,meteohub,2013-08-03 11:24:00,
2013-08-03 06:30:00,54.1,50.7,30.08,ENE,67,0.0,0.0,88,0.00,,,0.00,meteohub,2013-08-03 11:30:00,
2013-08-03 06:35:00,54.0,50.5,30.08,ENE,67,0.0,0.0,88,0.00,,,0.00,meteohub,2013-08-03 11:35:00,
2013-08-03 06:40:00,54.0,50.5,30.07,ENE,67,0.0,0.0,88,0.00,,,0.00,meteohub,2013-08-03 11:40:00,
2013-08-03 06:46:00,54.0,50.5,30.08,ENE,67,0.0,0.0,88,0.00,,,0.00,meteohub,2013-08-03 11:46:00,
2013-08-03 06:51:00,54.0,50.5,30.08,ENE,67,0.0,0.0,88,0.00,,,0.00,meteohub,2013-08-03 11:51:00,
2013-08-03 06:56:00,54.0,50.5,30.08,ENE,67,0.0,0.0,88,0.00,,,0.00,meteohub,2013-08-03 11:56:00,
2013-08-03 07:01:00,54.0,50.7,30.09,ENE,67,0.0,0.0,89,0.00,,,0.00,meteohub,2013-08-03 12:01:00,
2013-08-03 07:06:00,54.1,50.9,30.09,ENE,67,0.0,0.0,89,0.00,,,0.00,meteohub,2013-08-03 12:06:00,
2013-08-03 07:11:00,54.3,51.1,30.09,ENE,65,0.0,0.0,89,0.00,,,0.00,meteohub,2013-08-03 12:11:00,
2013-08-03 07:16:00,54.3,51.1,30.09,ENE,66,0.0,0.0,89,0.00,,,0.00,meteohub,2013-08-03 12:16:00,
2013-08-03 07:22:00,54.7,51.4,30.09,ENE,67,0.0,0.0,89,0.00,,,0.00,meteohub,2013-08-03 12:22:00,
2013-08-03 07:26:00,54.9,51.6,30.10,ENE,67,0.0,0.0,89,0.00,,,0.00,meteohub,2013-08-03 12:26:00,
2013-08-03 07:32:00,55.0,52.2,30.10,ENE,65,0.0,0.0,90,0.00,,,0.00,meteohub,2013-08-03 12:32:00,
2013-08-03 07:37:00,55.2,52.0,30.09,ENE,67,0.0,0.0,89,0.00,,,0.00,meteohub,2013-08-03 12:37:00,
2013-08-03 07:42:00,55.4,52.5,30.10,ENE,67,0.0,0.0,90,0.00,,,0.00,meteohub,2013-08-03 12:42:00,
2013-08-03 07:47:00,55.8,52.9,30.10,ENE,66,0.0,0.0,90,0.00,,,0.00,meteohub,2013-08-03 12:47:00,
2013-08-03 07:53:00,55.9,53.1,30.10,ENE,67,0.0,0.0,90,0.00,,,0.00,meteohub,2013-08-03 12:53:00,
2013-08-03 07:58:00,56.7,54.1,30.10,ENE,66,0.0,0.0,91,0.00,,,0.00,meteohub,2013-08-03 12:58:00,
2013-08-03 08:03:00,57.4,54.9,30.11,ENE,66,0.0,1.0,91,0.00,,,0.00,meteohub,2013-08-03 13:03:00,
2013-08-03 08:09:00,58.5,55.8,30.11,ENE,67,0.0,1.0,91,0.00,,,0.00,meteohub,2013-08-03 13:09:00,
2013-08-03 08:13:00,59.0,56.3,30.11,ENE,66,0.0,0.0,91,0.00,,,0.00,meteohub,2013-08-03 13:13:00,
2013-08-03 08:19:00,59.4,56.7,30.12,ENE,67,0.0,0.0,91,0.00,,,0.00,meteohub,2013-08-03 13:19:00,
2013-08-03 08:24:00,60.1,57.4,30.12,ENE,67,0.0,0.0,91,0.00,,,0.00,meteohub,2013-08-03 13:24:00,
2013-08-03 08:29:00,60.3,57.4,30.11,ENE,67,0.0,0.0,90,0.00,,,0.00,meteohub,2013-08-03 13:29:00,
2013-08-03 08:34:00,60.6,57.7,30.11,ENE,67,0.0,0.0,90,0.00,,,0.00,meteohub,2013-08-03 13:34:00,
2013-08-03 08:39:00,61.0,58.1,30.12,ENE,67,0.0,0.0,90,0.00,,,0.00,meteohub,2013-08-03 13:39:00,
2013-08-03 08:45:00,61.0,58.1,30.12,ENE,67,0.0,0.0,90,0.00,,,0.00,meteohub,2013-08-03 13:45:00,
2013-08-03 08:50:00,61.0,58.1,30.12,ENE,65,0.0,0.0,90,0.00,,,0.00,meteohub,2013-08-03 13:50:00,
2013-08-03 08:55:00,61.2,58.3,30.12,ENE,71,0.0,0.0,90,0.00,,,0.00,meteohub,2013-08-03 13:55:00,
2013-08-03 09:00:00,61.3,58.1,30.12,ENE,71,0.0,0.0,89,0.00,,,0.00,meteohub,2013-08-03 14:00:00,
2013-08-03 09:06:00,61.5,58.3,30.12,ENE,71,0.0,0.0,89,0.00,,,0.00,meteohub,2013-08-03 14:06:00,
2013-08-03 09:11:00,61.9,58.6,30.12,ENE,71,0.0,0.0,89,0.00,,,0.00,meteohub,2013-08-03 14:11:00,
2013-08-03 09:16:00,62.1,58.5,30.12,ENE,71,0.0,0.0,88,0.00,,,0.00,meteohub,2013-08-03 14:16:00,
2013-08-03 09:21:00,62.1,58.1,30.11,ENE,71,0.0,0.0,87,0.00,,,0.00,meteohub,2013-08-03 14:21:00,
2013-08-03 09:26:00,62.2,58.3,30.12,ENE,69,0.0,1.0,87,0.00,,,0.00,meteohub,2013-08-03 14:26:00,
2013-08-03 09:31:00,62.6,58.3,30.11,ENE,69,0.0,1.0,86,0.00,,,0.00,meteohub,2013-08-03 14:31:00,
2013-08-03 09:36:00,63.0,58.6,30.12,ENE,69,0.0,1.0,86,0.00,,,0.00,meteohub,2013-08-03 14:36:00,
2013-08-03 09:42:00,63.3,58.8,30.12,NE,55,0.0,1.0,85,0.00,,,0.00,meteohub,2013-08-03 14:42:00,
2013-08-03 09:47:00,63.5,58.3,30.12,WNW,300,0.0,3.0,83,0.00,,,0.00,meteohub,2013-08-03 14:47:00,
2013-08-03 09:52:00,63.9,58.3,30.12,WNW,300,0.0,4.0,82,0.00,,,0.00,meteohub,2013-08-03 14:52:00,
2013-08-03 09:57:00,64.2,58.3,30.12,WNW,284,0.0,4.0,81,0.00,,,0.00,meteohub,2013-08-03 14:57:00,
2013-08-03 10:02:00,64.6,58.3,30.12,WNW,284,0.0,4.0,80,0.00,,,0.00,meteohub,2013-08-03 15:02:00,
2013-08-03 10:07:00,64.9,57.9,30.12,WNW,283,1.0,2.0,78,0.00,,,0.00,meteohub,2013-08-03 15:07:00,
2013-08-03 10:12:00,65.5,58.1,30.13,West,281,0.0,2.0,77,0.00,,,0.00,meteohub,2013-08-03 15:12:00,
2013-08-03 10:17:00,65.8,58.1,30.13,WNW,296,0.0,4.0,76,0.00,,,0.00,meteohub,2013-08-03 15:17:00,
2013-08-03 10:22:00,66.2,57.7,30.13,WNW,295,2.0,4.0,74,0.00,,,0.00,meteohub,2013-08-03 15:22:00,
2013-08-03 10:27:00,66.6,57.2,30.13,WNW,295,0.0,4.0,72,0.00,,,0.00,meteohub,2013-08-03 15:27:00,
2013-08-03 10:33:00,66.7,57.4,30.13,West,281,0.0,3.0,72,0.00,,,0.00,meteohub,2013-08-03 15:33:00,
2013-08-03 10:38:00,67.3,57.6,30.13,West,281,0.0,3.0,71,0.00,,,0.00,meteohub,2013-08-03 15:38:00,
2013-08-03 10:43:00,67.6,57.0,30.13,West,281,0.0,3.0,69,0.00,,,0.00,meteohub,2013-08-03 15:43:00,
2013-08-03 10:48:00,68.0,57.4,30.13,West,281,0.0,3.0,69,0.00,,,0.00,meteohub,2013-08-03 15:48:00,
2013-08-03 10:54:00,68.5,56.7,30.13,NE,53,0.0,3.0,66,0.00,,,0.00,meteohub,2013-08-03 15:54:00,
2013-08-03 10:59:00,68.9,55.4,30.13,NE,50,0.0,2.0,62,0.00,,,0.00,meteohub,2013-08-03 15:59:00,
2013-08-03 11:04:00,69.4,55.4,30.13,NE,46,0.0,2.0,61,0.00,,,0.00,meteohub,2013-08-03 16:04:00,
2013-08-03 11:09:00,70.0,55.4,30.13,NE,51,0.0,2.0,60,0.00,,,0.00,meteohub,2013-08-03 16:09:00,
2013-08-03 11:14:00,70.3,55.4,30.12,NE,50,0.0,2.0,59,0.00,,,0.00,meteohub,2013-08-03 16:14:00,
2013-08-03 11:19:00,70.5,55.6,30.12,NE,51,0.0,2.0,59,0.00,,,0.00,meteohub,2013-08-03 16:19:00,
2013-08-03 11:25:00,70.7,54.7,30.12,NE,49,1.0,2.0,57,0.00,,,0.00,meteohub,2013-08-03 16:25:00,
2013-08-03 11:30:00,71.1,55.6,30.12,North,5,1.0,2.0,58,0.00,,,0.00,meteohub,2013-08-03 16:30:00,
2013-08-03 11:35:00,71.2,55.2,30.13,North,0,0.0,3.0,57,0.00,,,0.00,meteohub,2013-08-03 16:35:00,
2013-08-03 11:41:00,71.6,56.1,30.13,NE,51,0.0,3.0,58,0.00,,,0.00,meteohub,2013-08-03 16:41:00,
2013-08-03 11:46:00,72.0,55.9,30.13,NE,51,0.0,3.0,57,0.00,,,0.00,meteohub,2013-08-03 16:46:00,
2013-08-03 11:51:00,72.1,56.1,30.13,NE,51,0.0,3.0,57,0.00,,,0.00,meteohub,2013-08-03 16:51:00,
2013-08-03 11:56:00,72.3,55.8,30.12,NE,46,0.0,2.0,56,0.00,,,0.00,meteohub,2013-08-03 16:56:00,
2013-08-03 12:01:00,72.7,55.6,30.13,ENE,57,0.0,1.0,55,0.00,,,0.00,meteohub,2013-08-03 17:01:00,
2013-08-03 12:07:00,73.0,54.9,30.13,NE,56,0.0,3.0,53,0.00,,,0.00,meteohub,2013-08-03 17:07:00,
2013-08-03 12:12:00,73.0,54.3,30.13,NE,41,1.0,3.0,52,0.00,,,0.00,meteohub,2013-08-03 17:12:00,
2013-08-03 12:17:00,73.2,55.0,30.13,NE,44,0.0,3.0,53,0.00,,,0.00,meteohub,2013-08-03 17:17:00,
2013-08-03 12:22:00,73.2,55.0,30.13,NE,44,0.0,3.0,53,0.00,,,0.00,meteohub,2013-08-03 17:22:00,
2013-08-03 12:27:00,73.2,55.0,30.13,NE,44,0.0,3.0,53,0.00,,,0.00,meteohub,2013-08-03 17:27:00,
2013-08-03 12:33:00,73.4,54.7,30.13,East,79,1.0,1.0,52,0.00,,,0.00,meteohub,2013-08-03 17:33:00,
2013-08-03 12:38:00,73.6,54.9,30.13,East,79,0.0,3.0,52,0.00,,,0.00,meteohub,2013-08-03 17:38:00,
2013-08-03 12:43:00,73.8,55.0,30.13,NE,49,0.0,3.0,52,0.00,,,0.00,meteohub,2013-08-03 17:43:00,
2013-08-03 12:49:00,73.9,55.2,30.13,North,5,1.0,3.0,52,0.00,,,0.00,meteohub,2013-08-03 17:49:00,
2013-08-03 12:54:00,74.1,54.9,30.13,ENE,67,0.0,2.0,51,0.00,,,0.00,meteohub,2013-08-03 17:54:00,
2013-08-03 12:59:00,74.7,55.9,30.12,North,350,0.0,3.0,52,0.00,,,0.00,meteohub,2013-08-03 17:59:00,
2013-08-03 13:04:00,74.8,54.3,30.12,ENE,76,0.0,3.0,49,0.00,,,0.00,meteohub,2013-08-03 18:04:00,
2013-08-03 13:09:00,75.2,55.8,30.12,ENE,60,1.0,3.0,51,0.00,,,0.00,meteohub,2013-08-03 18:09:00,
2013-08-03 13:14:00,75.6,55.6,30.13,ENE,60,0.0,4.0,50,0.00,,,0.00,meteohub,2013-08-03 18:14:00,
2013-08-03 13:19:00,75.7,55.2,30.12,NE,50,1.0,4.0,49,0.00,,,0.00,meteohub,2013-08-03 18:19:00,
2013-08-03 13:25:00,75.9,54.3,30.12,ENE,73,0.0,4.0,47,0.00,,,0.00,meteohub,2013-08-03 18:25:00,
2013-08-03 13:30:00,76.3,54.0,30.12,ENE,75,0.0,4.0,46,0.00,,,0.00,meteohub,2013-08-03 18:30:00,
2013-08-03 13:35:00,76.6,54.9,30.12,NE,49,0.0,4.0,47,0.00,,,0.00,meteohub,2013-08-03 18:35:00,
2013-08-03 13:40:00,77.0,55.2,30.12,NNW,342,0.0,3.0,47,0.00,,,0.00,meteohub,2013-08-03 18:40:00,
2013-08-03 13:45:00,77.4,53.8,30.12,WSW,248,1.0,3.0,44,0.00,,,0.00,meteohub,2013-08-03 18:45:00,
2013-08-03 13:50:00,77.5,54.0,30.12,ENE,57,3.0,5.0,44,0.00,,,0.00,meteohub,2013-08-03 18:50:00,
2013-08-03 13:56:00,77.5,53.2,30.12,ENE,76,0.0,5.0,43,0.00,,,0.00,meteohub,2013-08-03 18:56:00,
2013-08-03 14:01:00,78.1,54.3,30.12,ENE,70,0.0,5.0,44,0.00,,,0.00,meteohub,2013-08-03 19:01:00,
2013-08-03 14:06:00,78.4,54.1,30.12,NE,55,1.0,5.0,43,0.00,,,0.00,meteohub,2013-08-03 19:06:00,
2013-08-03 14:12:00,78.6,52.9,30.12,ENE,59,0.0,3.0,41,0.00,,,0.00,meteohub,2013-08-03 19:12:00,
2013-08-03 14:17:00,79.0,54.0,30.12,NNE,32,2.0,3.0,42,0.00,,,0.00,meteohub,2013-08-03 19:17:00,
2013-08-03 14:22:00,79.3,54.3,30.12,ENE,67,3.0,3.0,42,0.00,,,0.00,meteohub,2013-08-03 19:22:00,
2013-08-03 14:27:00,79.3,53.6,30.12,NE,48,0.0,4.0,41,0.00,,,0.00,meteohub,2013-08-03 19:27:00,
2013-08-03 14:32:00,79.2,53.4,30.12,NE,51,0.0,4.0,41,0.00,,,0.00,meteohub,2013-08-03 19:32:00,
2013-08-03 14:37:00,79.0,53.2,30.12,NE,50,1.0,4.0,41,0.00,,,0.00,meteohub,2013-08-03 19:37:00,
2013-08-03 14:42:00,79.0,54.0,30.12,ENE,58,1.0,3.0,42,0.00,,,0.00,meteohub,2013-08-03 19:42:00,
2013-08-03 14:47:00,79.0,52.5,30.12,ENE,74,0.0,3.0,40,0.00,,,0.00,meteohub,2013-08-03 19:47:00,
2013-08-03 14:52:00,79.0,54.0,30.12,ENE,74,0.0,4.0,42,0.00,,,0.00,meteohub,2013-08-03 19:52:00,
2013-08-03 14:58:00,79.0,55.2,30.12,ENE,74,0.0,4.0,44,0.00,,,0.00,meteohub,2013-08-03 19:58:00,
2013-08-03 15:03:00,79.2,53.4,30.12,ENE,74,1.0,3.0,41,0.00,,,0.00,meteohub,2013-08-03 20:03:00,
2013-08-03 15:08:00,79.5,54.5,30.12,NE,35,0.0,5.0,42,0.00,,,0.00,meteohub,2013-08-03 20:08:00,
2013-08-03 15:13:00,79.9,54.1,30.11,ENE,65,0.0,5.0,41,0.00,,,0.00,meteohub,2013-08-03 20:13:00,
2013-08-03 15:18:00,80.1,54.9,30.11,ENE,72,0.0,5.0,42,0.00,,,0.00,meteohub,2013-08-03 20:18:00,
2013-08-03 15:24:00,80.2,55.0,30.12,ENE,74,0.0,3.0,42,0.00,,,0.00,meteohub,2013-08-03 20:24:00,
2013-08-03 15:29:00,80.2,54.3,30.12,East,79,1.0,3.0,41,0.00,,,0.00,meteohub,2013-08-03 20:29:00,
2013-08-03 15:34:00,80.4,54.5,30.11,East,79,0.0,3.0,41,0.00,,,0.00,meteohub,2013-08-03 20:34:00,
2013-08-03 15:39:00,80.4,54.0,30.11,ENE,72,0.0,3.0,40,0.00,,,0.00,meteohub,2013-08-03 20:39:00,
2013-08-03 15:44:00,80.4,54.0,30.11,ENE,73,0.0,3.0,40,0.00,,,0.00,meteohub,2013-08-03 20:44:00,
2013-08-03 15:50:00,80.4,53.2,30.11,ENE,68,0.0,4.0,39,0.00,,,0.00,meteohub,2013-08-03 20:50:00,
2013-08-03 15:55:00,80.4,54.5,30.11,ENE,68,0.0,4.0,41,0.00,,,0.00,meteohub,2013-08-03 20:55:00,
2013-08-03 16:00:00,80.4,53.2,30.11,NE,56,1.0,4.0,39,0.00,,,0.00,meteohub,2013-08-03 21:00:00,
2013-08-03 16:05:00,80.4,54.0,30.11,NE,56,0.0,3.0,40,0.00,,,0.00,meteohub,2013-08-03 21:05:00,
2013-08-03 16:11:00,80.8,53.6,30.11,NE,53,2.0,3.0,39,0.00,,,0.00,meteohub,2013-08-03 21:11:00,
2013-08-03 16:16:00,80.8,52.9,30.11,ENE,60,0.0,2.0,38,0.00,,,0.00,meteohub,2013-08-03 21:16:00,
2013-08-03 16:17:00,80.8,53.6,30.11,ENE,60,0.0,2.0,39,0.00,,,0.00,meteohub,2013-08-03 21:17:00,
2013-08-03 16:22:00,81.0,52.9,30.11,West,267,0.0,3.0,38,0.00,,,0.00,meteohub,2013-08-03 21:22:00,
2013-08-03 16:27:00,81.0,53.6,30.11,NNW,342,0.0,3.0,39,0.00,,,0.00,meteohub,2013-08-03 21:27:00,
2013-08-03 16:33:00,81.1,53.8,30.11,NNW,346,0.0,3.0,39,0.00,,,0.00,meteohub,2013-08-03 21:33:00,
2013-08-03 16:38:00,81.0,52.9,30.11,NE,36,0.0,3.0,38,0.00,,,0.00,meteohub,2013-08-03 21:38:00,
2013-08-03 16:43:00,80.8,52.9,30.11,ENE,74,1.0,1.0,38,0.00,,,0.00,meteohub,2013-08-03 21:43:00,
2013-08-03 16:48:00,80.6,52.7,30.10,ENE,74,0.0,2.0,38,0.00,,,0.00,meteohub,2013-08-03 21:48:00,
2013-08-03 16:53:00,80.6,52.7,30.11,NE,36,0.0,4.0,38,0.00,,,0.00,meteohub,2013-08-03 21:53:00,
2013-08-03 16:58:00,80.6,53.4,30.10,ENE,60,0.0,5.0,39,0.00,,,0.00,meteohub,2013-08-03 21:58:00,
2013-08-03 17:03:00,80.6,52.7,30.11,ENE,65,0.0,5.0,38,0.00,,,0.00,meteohub,2013-08-03 22:03:00,
2013-08-03 17:09:00,80.4,52.5,30.11,ENE,57,0.0,5.0,38,0.00,,,0.00,meteohub,2013-08-03 22:09:00,
2013-08-03 17:14:00,80.1,52.9,30.10,ENE,60,1.0,4.0,39,0.00,,,0.00,meteohub,2013-08-03 22:14:00,
2013-08-03 17:19:00,80.1,53.6,30.10,ENE,60,0.0,3.0,40,0.00,,,0.00,meteohub,2013-08-03 22:19:00,
2013-08-03 17:25:00,79.9,54.1,30.10,NNE,31,0.0,3.0,41,0.00,,,0.00,meteohub,2013-08-03 22:25:00,
2013-08-03 17:30:00,79.9,53.4,30.10,ENE,68,1.0,3.0,40,0.00,,,0.00,meteohub,2013-08-03 22:30:00,
2013-08-03 17:35:00,79.9,53.4,30.10,ENE,68,0.0,3.0,40,0.00,,,0.00,meteohub,2013-08-03 22:35:00,
2013-08-03 17:40:00,79.9,53.4,30.10,ENE,69,0.0,3.0,40,0.00,,,0.00,meteohub,2013-08-03 22:40:00,
2013-08-03 17:45:00,80.1,53.6,30.10,ENE,69,0.0,2.0,40,0.00,,,0.00,meteohub,2013-08-03 22:45:00,
2013-08-03 17:51:00,80.1,53.6,30.10,ENE,69,0.0,2.0,40,0.00,,,0.00,meteohub,2013-08-03 22:51:00,
2013-08-03 17:56:00,80.2,53.1,30.10,ENE,76,0.0,3.0,39,0.00,,,0.00,meteohub,2013-08-03 22:56:00,
2013-08-03 18:01:00,80.2,53.8,30.10,ENE,75,0.0,3.0,40,0.00,,,0.00,meteohub,2013-08-03 23:01:00,
2013-08-03 18:06:00,80.2,53.8,30.10,NNE,16,0.0,3.0,40,0.00,,,0.00,meteohub,2013-08-03 23:06:00,
2013-08-03 18:12:00,80.2,53.8,30.11,ENE,76,3.0,3.0,40,0.00,,,0.00,meteohub,2013-08-03 23:12:00,
2013-08-03 18:17:00,79.9,53.4,30.10,ENE,74,0.0,3.0,40,0.00,,,0.00,meteohub,2013-08-03 23:17:00,
2013-08-03 18:22:00,79.7,54.0,30.10,ENE,76,3.0,3.0,41,0.00,,,0.00,meteohub,2013-08-03 23:22:00,
2013-08-03 18:27:00,79.3,53.6,30.11,ENE,75,0.0,5.0,41,0.00,,,0.00,meteohub,2013-08-03 23:27:00,
2013-08-03 18:32:00,79.0,53.2,30.11,ENE,76,1.0,5.0,41,0.00,,,0.00,meteohub,2013-08-03 23:32:00,
2013-08-03 18:37:00,78.6,53.6,30.11,ENE,75,0.0,5.0,42,0.00,,,0.00,meteohub,2013-08-03 23:37:00,
2013-08-03 18:42:00,78.3,53.2,30.11,ENE,75,1.0,3.0,42,0.00,,,0.00,meteohub,2013-08-03 23:42:00,
2013-08-03 18:47:00,77.7,52.9,30.11,ENE,78,1.0,4.0,42,0.00,,,0.00,meteohub,2013-08-03 23:47:00,
2013-08-03 18:52:00,77.4,53.1,30.11,ENE,78,0.0,5.0,43,0.00,,,0.00,meteohub,2013-08-03 23:52:00,
2013-08-03 18:57:00,77.0,53.4,30.11,ENE,63,0.0,5.0,44,0.00,,,0.00,meteohub,2013-08-03 23:57:00,
2013-08-03 19:03:00,76.6,53.1,30.11,ENE,67,2.0,5.0,44,0.00,,,0.00,meteohub,2013-08-04 00:03:00,
2013-08-03 19:08:00,76.3,52.7,30.11,ENE,76,1.0,3.0,44,0.00,,,0.00,meteohub,2013-08-04 00:08:00,
2013-08-03 19:13:00,75.9,53.1,30.11,ENE,75,0.0,4.0,45,0.00,,,0.00,meteohub,2013-08-04 00:13:00,
2013-08-03 19:18:00,75.7,52.9,30.11,ENE,76,0.0,4.0,45,0.00,,,0.00,meteohub,2013-08-04 00:18:00,
2013-08-03 19:23:00,75.7,53.4,30.11,ENE,76,0.0,2.0,46,0.00,,,0.00,meteohub,2013-08-04 00:23:00,
2013-08-03 19:29:00,75.6,53.2,30.11,ENE,75,1.0,2.0,46,0.00,,,0.00,meteohub,2013-08-04 00:29:00,
2013-08-03 19:34:00,75.4,53.8,30.11,ENE,75,0.0,2.0,47,0.00,,,0.00,meteohub,2013-08-04 00:34:00,
2013-08-03 19:39:00,75.0,53.4,30.10,ENE,75,0.0,2.0,47,0.00,,,0.00,meteohub,2013-08-04 00:39:00,
2013-08-03 19:44:00,74.8,53.8,30.11,ENE,75,0.0,2.0,48,0.00,,,0.00,meteohub,2013-08-04 00:44:00,
2013-08-03 19:49:00,74.7,53.6,30.11,ENE,76,0.0,1.0,48,0.00,,,0.00,meteohub,2013-08-04 00:49:00,
2013-08-03 19:54:00,74.7,54.3,30.11,ENE,76,0.0,1.0,49,0.00,,,0.00,meteohub,2013-08-04 00:54:00,
2013-08-03 19:59:00,74.5,54.1,30.11,ENE,76,0.0,1.0,49,0.00,,,0.00,meteohub,2013-08-04 00:59:00,
2013-08-03 20:04:00,74.1,53.8,30.11,ENE,75,0.0,1.0,49,0.00,,,0.00,meteohub,2013-08-04 01:04:00,
2013-08-03 20:10:00,73.9,53.6,30.11,ENE,76,0.0,1.0,49,0.00,,,0.00,meteohub,2013-08-04 01:10:00,
2013-08-03 20:15:00,73.9,53.6,30.12,ENE,76,0.0,1.0,49,0.00,,,0.00,meteohub,2013-08-04 01:15:00,
2013-08-03 20:20:00,73.8,53.4,30.11,ENE,75,0.0,1.0,49,0.00,,,0.00,meteohub,2013-08-04 01:20:00,
2013-08-03 20:25:00,73.6,53.2,30.12,ENE,76,0.0,1.0,49,0.00,,,0.00,meteohub,2013-08-04 01:25:00,
2013-08-03 20:30:00,73.2,53.4,30.12,ENE,76,0.0,0.0,50,0.00,,,0.00,meteohub,2013-08-04 01:30:00,
2013-08-03 20:35:00,73.0,53.2,30.12,ENE,75,0.0,1.0,50,0.00,,,0.00,meteohub,2013-08-04 01:35:00,
2013-08-03 20:40:00,72.9,53.1,30.11,ENE,75,0.0,1.0,50,0.00,,,0.00,meteohub,2013-08-04 01:40:00,
2013-08-03 20:46:00,72.7,52.9,30.11,ENE,76,0.0,1.0,50,0.00,,,0.00,meteohub,2013-08-04 01:46:00,
2013-08-03 20:51:00,72.3,53.2,30.12,ENE,76,0.0,0.0,51,0.00,,,0.00,meteohub,2013-08-04 01:51:00,
2013-08-03 20:56:00,72.1,53.6,30.12,ENE,75,0.0,0.0,52,0.00,,,0.00,meteohub,2013-08-04 01:56:00,
2013-08-03 20:58:00,72.0,53.4,30.12,ENE,76,0.0,0.0,52,0.00,,,0.00,meteohub,2013-08-04 01:58:00,
2013-08-03 21:03:00,71.6,53.6,30.12,ENE,75,0.0,0.0,53,0.00,,,0.00,meteohub,2013-08-04 02:03:00,
2013-08-03 21:08:00,71.2,53.2,30.12,ENE,76,0.0,0.0,53,0.00,,,0.00,meteohub,2013-08-04 02:08:00,
2013-08-03 21:14:00,70.7,52.7,30.13,ENE,76,0.0,0.0,53,0.00,,,0.00,meteohub,2013-08-04 02:14:00,
2013-08-03 21:19:00,70.3,52.3,30.13,ENE,76,0.0,0.0,53,0.00,,,0.00,meteohub,2013-08-04 02:19:00,
2013-08-03 21:24:00,70.0,52.0,30.13,ENE,76,0.0,1.0,53,0.00,,,0.00,meteohub,2013-08-04 02:24:00,
2013-08-03 21:29:00,69.4,52.2,30.13,ENE,75,0.0,1.0,54,0.00,,,0.00,meteohub,2013-08-04 02:29:00,
2013-08-03 21:34:00,69.3,52.0,30.13,ENE,75,0.0,1.0,54,0.00,,,0.00,meteohub,2013-08-04 02:34:00,
2013-08-03 21:39:00,69.1,52.2,30.13,ENE,76,0.0,0.0,55,0.00,,,0.00,meteohub,2013-08-04 02:39:00,
2013-08-03 21:45:00,68.7,52.3,30.13,ENE,76,0.0,0.0,56,0.00,,,0.00,meteohub,2013-08-04 02:45:00,
2013-08-03 21:50:00,68.5,52.2,30.13,ENE,75,0.0,0.0,56,0.00,,,0.00,meteohub,2013-08-04 02:50:00,
2013-08-03 21:55:00,68.2,51.8,30.14,ENE,76,0.0,0.0,56,0.00,,,0.00,meteohub,2013-08-04 02:55:00,
2013-08-03 22:00:00,68.0,52.2,30.14,ENE,76,0.0,0.0,57,0.00,,,0.00,meteohub,2013-08-04 03:00:00,
2013-08-03 22:06:00,67.6,52.3,30.14,ENE,76,0.0,0.0,58,0.00,,,0.00,meteohub,2013-08-04 03:06:00,
2013-08-03 22:11:00,67.5,52.2,30.14,ENE,76,0.0,0.0,58,0.00,,,0.00,meteohub,2013-08-04 03:11:00,
2013-08-03 22:16:00,67.3,52.5,30.14,ENE,76,0.0,0.0,59,0.00,,,0.00,meteohub,2013-08-04 03:16:00,
2013-08-03 22:21:00,66.9,52.2,30.14,ENE,76,0.0,0.0,59,0.00,,,0.00,meteohub,2013-08-04 03:21:00,
2013-08-03 22:26:00,66.7,52.3,30.14,ENE,75,0.0,0.0,60,0.00,,,0.00,meteohub,2013-08-04 03:26:00,
2013-08-03 22:31:00,66.4,52.2,30.14,ENE,76,0.0,0.0,60,0.00,,,0.00,meteohub,2013-08-04 03:31:00,
2013-08-03 22:36:00,65.8,52.0,30.15,ENE,76,0.0,0.0,61,0.00,,,0.00,meteohub,2013-08-04 03:36:00,
2013-08-03 22:41:00,65.5,52.2,30.14,ENE,75,0.0,0.0,62,0.00,,,0.00,meteohub,2013-08-04 03:41:00,
2013-08-03 22:47:00,65.1,52.2,30.14,ENE,76,0.0,0.0,63,0.00,,,0.00,meteohub,2013-08-04 03:47:00,
2013-08-03 22:52:00,64.8,51.8,30.14,ENE,75,0.0,0.0,63,0.00,,,0.00,meteohub,2013-08-04 03:52:00,
2013-08-03 22:57:00,64.2,51.8,30.15,ENE,75,0.0,0.0,64,0.00,,,0.00,meteohub,2013-08-04 03:57:00,
2013-08-03 23:01:00,64.0,51.6,30.15,ENE,76,0.0,0.0,64,0.00,,,0.00,meteohub,2013-08-04 04:01:00,
2013-08-03 23:02:00,64.0,52.0,30.15,ENE,75,0.0,0.0,65,0.00,,,0.00,meteohub,2013-08-04 04:02:00,
2013-08-03 23:08:00,63.9,51.8,30.15,ENE,75,0.0,0.0,65,0.00,,,0.00,meteohub,2013-08-04 04:08:00,
2013-08-03 23:13:00,63.7,51.6,30.16,ENE,76,0.0,0.0,65,0.00,,,0.00,meteohub,2013-08-04 04:13:00,
2013-08-03 23:18:00,63.3,51.4,30.16,ENE,75,0.0,0.0,65,0.00,,,0.00,meteohub,2013-08-04 04:18:00,
2013-08-03 23:23:00,63.3,51.8,30.16,ENE,76,0.0,0.0,66,0.00,,,0.00,meteohub,2013-08-04 04:23:00,
2013-08-03 23:28:00,63.1,51.6,30.16,ENE,76,0.0,0.0,66,0.00,,,0.00,meteohub,2013-08-04 04:28:00,
2013-08-03 23:33:00,63.0,51.8,30.16,ENE,76,0.0,0.0,67,0.00,,,0.00,meteohub,2013-08-04 04:33:00,
2013-08-03 23:38:00,62.8,51.6,30.16,ENE,76,0.0,0.0,67,0.00,,,0.00,meteohub,2013-08-04 04:38:00,
2013-08-03 23:43:00,62.6,51.4,30.16,ENE,76,0.0,0.0,67,0.00,,,0.00,meteohub,2013-08-04 04:43:00,
2013-08-03 23:49:00,62.4,51.3,30.16,ENE,76,0.0,0.0,67,0.00,,,0.00,meteohub,2013-08-04 04:49:00,
2013-08-03 23:54:00,62.2,51.6,30.17,ENE,76,0.0,0.0,68,0.00,,,0.00,meteohub,2013-08-04 04:54:00,